Airfield :
LOGIN :

Register | Disclaimer

   EN    FR    IT 

 










Legend :    VFR   Marginal VFR   IFR   Intensive IFR   Very Intensive IFR
Visi :
Ceiling :
>= 8 km
>= 3000ft
5 to 8 km
1000 to 3000 ft
1500m to 5 km
500 to 1000 ft
800 to 1500m
200 to 500 ft
< 800m
< 200 ft
Symbols :   Thunderstorms  Fog  Heavy snow  Heavy precipitations  Wind > 20 kt
SIGMETs :     Misc.  Thunderstorms  Icing  Turbulence  Mountain Waves  Volcanic Ashes






- Airport Elevation : 412 ft
- IATA code : ORE


LFOJ - Orleans

CURRENT METAR :
  • 280700Z AUTO 02007KT 9000 NSC 14/10 Q1023 NOSIG

EXPIRED METARs :
  • 280630Z AUTO 02006KT CAVOK 12/09 Q1023 NOSIG
  • 280600Z AUTO 01006KT CAVOK 11/09 Q1023 NOSIG
  • 280530Z AUTO 01005KT CAVOK 09/08 Q1023 NOSIG
  • 280500Z AUTO 02003KT CAVOK 08/07 Q1023 NOSIG
  • 280430Z AUTO VRB03KT CAVOK 07/07 Q1023 NOSIG

TAF TAF LFOJ
Valid from the 28 at 03:00 until the 29 at 03:00 UTC


280200Z 2803/2903 35008KT CAVOK TX21/2815Z TN07/2804Z



MET'MAP, your aeronautical weather chart ! - Copyright ORBIFLY December 2007 - Disclaimer

ORBIFLY MET'MAP TEAM :

Programming & Development : Alexandra Zaïnal
Original concept : Baudouin d'Aumeries
Technical & hardware support : Manuel Goepfert
Assistance : Marc-Olivier Méhu

Contact : metmap@orbifly.com




SOURCES & CREDITS :

   NOAA